createdAt,value
2023-03-19T00:05:01.692Z,10.40
2023-03-19T00:07:47.618Z,10.82
2023-03-19T00:10:33.412Z,10.29
2023-03-19T00:13:19.327Z,9.42
2023-03-19T00:16:05.160Z,9.54
2023-03-19T00:18:51.067Z,9.75
2023-03-19T00:21:37.009Z,10.05
2023-03-19T00:24:22.819Z,10.27
2023-03-19T00:27:08.741Z,10.15
2023-03-19T00:29:54.598Z,10.02
2023-03-19T00:32:40.497Z,10.10
2023-03-19T00:35:26.482Z,10.69
2023-03-19T00:38:12.214Z,9.72
2023-03-19T00:40:58.247Z,9.55
2023-03-19T00:43:44.262Z,9.22
2023-03-19T00:46:30.267Z,9.25
2023-03-19T00:49:16.439Z,8.89
2023-03-19T00:52:02.442Z,9.35
2023-03-19T00:54:48.271Z,9.43
2023-03-19T00:57:34.297Z,9.43
2023-03-19T01:00:20.094Z,9.41
2023-03-19T01:03:06.070Z,9.93
2023-03-19T01:05:51.925Z,9.64
2023-03-19T01:08:37.677Z,10.03
2023-03-19T01:11:23.631Z,9.44
2023-03-19T01:14:09.413Z,9.44
2023-03-19T01:16:55.280Z,9.63
2023-03-19T01:19:41.278Z,9.07
2023-03-19T01:22:27.132Z,9.51
2023-03-19T01:25:13.107Z,9.38
2023-03-19T01:27:59.023Z,9.73
2023-03-19T01:30:45.079Z,9.22
2023-03-19T01:33:31.078Z,8.85
2023-03-19T01:36:16.772Z,8.85
2023-03-19T01:39:02.672Z,8.87
2023-03-19T01:41:48.545Z,8.97
2023-03-19T01:44:36.432Z,8.74
2023-03-19T01:47:22.414Z,9.07
2023-03-19T01:50:08.406Z,9.00
2023-03-19T01:52:54.215Z,8.83
2023-03-19T01:55:40.263Z,8.13
2023-03-19T01:58:26.222Z,8.51
2023-03-19T02:01:12.069Z,8.66
2023-03-19T02:03:58.050Z,8.55
2023-03-19T02:06:43.790Z,8.80
2023-03-19T02:09:29.815Z,8.65
2023-03-19T02:12:15.749Z,8.66
2023-03-19T02:15:01.613Z,9.40
2023-03-19T02:17:47.650Z,9.19
2023-03-19T02:20:33.696Z,9.40
2023-03-19T02:23:20.019Z,8.82
2023-03-19T02:26:05.995Z,8.48
2023-03-19T02:28:51.806Z,8.76
2023-03-19T02:31:37.845Z,8.26
2023-03-19T02:34:23.865Z,8.78
2023-03-19T02:37:09.709Z,8.67
2023-03-19T02:39:55.651Z,8.59
2023-03-19T02:42:41.542Z,8.67
2023-03-19T02:45:27.417Z,8.50
2023-03-19T02:48:13.310Z,8.26
2023-03-19T02:50:59.183Z,8.66
2023-03-19T02:53:45.169Z,8.70
2023-03-19T02:56:30.983Z,8.83
2023-03-19T02:59:16.944Z,8.54
2023-03-19T03:02:02.933Z,7.95
2023-03-19T03:04:48.869Z,8.60
2023-03-19T03:07:34.844Z,8.51
2023-03-19T03:10:20.905Z,8.79
2023-03-19T03:13:06.709Z,8.77
2023-03-19T03:15:52.578Z,8.96
2023-03-19T03:18:38.351Z,8.82
2023-03-19T03:21:24.149Z,8.69
2023-03-19T03:24:10.063Z,8.95
2023-03-19T03:26:55.907Z,8.43
2023-03-19T03:29:41.966Z,8.82
2023-03-19T03:32:27.781Z,8.55
2023-03-19T03:35:13.690Z,8.19
2023-03-19T03:37:59.629Z,7.93
2023-03-19T03:40:45.464Z,8.43
2023-03-19T03:43:31.215Z,8.35
2023-03-19T03:46:17.256Z,8.59
2023-03-19T03:49:03.141Z,8.47
2023-03-19T03:51:49.197Z,8.34
2023-03-19T03:54:35.122Z,8.44
2023-03-19T03:57:20.868Z,8.21
2023-03-19T04:00:06.750Z,8.01
2023-03-19T04:02:52.574Z,8.15
2023-03-19T04:05:38.514Z,8.40
2023-03-19T04:08:24.322Z,8.45
2023-03-19T04:11:10.184Z,8.51
2023-03-19T04:13:55.930Z,8.27
2023-03-19T04:16:41.827Z,8.55
2023-03-19T04:19:27.734Z,8.80
2023-03-19T04:22:13.723Z,8.54
2023-03-19T04:24:59.586Z,7.89
2023-03-19T04:27:45.551Z,8.30
2023-03-19T04:30:33.499Z,8.21
2023-03-19T04:33:20.644Z,8.00
2023-03-19T04:36:06.492Z,7.88
2023-03-19T04:38:52.435Z,8.16
2023-03-19T04:41:38.306Z,8.00
2023-03-19T04:44:24.206Z,7.49
2023-03-19T04:47:12.205Z,7.89
2023-03-19T04:49:58.067Z,8.09
2023-03-19T04:52:44.117Z,7.98
2023-03-19T04:55:29.909Z,7.91
2023-03-19T04:58:15.809Z,7.97
2023-03-19T05:01:01.665Z,8.07
2023-03-19T05:03:47.612Z,7.93
2023-03-19T05:06:33.379Z,7.58
2023-03-19T05:09:19.395Z,7.86
2023-03-19T05:12:05.242Z,7.50
2023-03-19T05:14:51.196Z,7.54
2023-03-19T05:17:36.930Z,7.59
2023-03-19T05:20:24.770Z,8.24
2023-03-19T05:23:10.656Z,7.68
2023-03-19T05:25:56.562Z,7.55
2023-03-19T05:28:42.366Z,7.63
2023-03-19T05:31:28.212Z,7.65
2023-03-19T05:34:16.128Z,7.68
2023-03-19T05:37:02.022Z,7.29
2023-03-19T05:39:48.080Z,7.30
2023-03-19T05:42:34.017Z,6.85
2023-03-19T05:45:19.885Z,7.13
2023-03-19T05:48:05.790Z,7.63
2023-03-19T05:50:51.697Z,7.70
2023-03-19T05:53:37.546Z,7.36
2023-03-19T05:56:23.481Z,7.29
2023-03-19T05:59:09.369Z,7.02
2023-03-19T06:01:55.308Z,6.98
2023-03-19T06:04:41.098Z,7.21
2023-03-19T06:07:26.875Z,6.91
2023-03-19T06:10:12.778Z,7.27
2023-03-19T06:12:58.572Z,7.36
2023-03-19T06:15:44.531Z,7.53
2023-03-19T06:18:30.606Z,7.68
2023-03-19T06:21:16.474Z,7.17
2023-03-19T06:24:02.372Z,7.23
2023-03-19T06:26:48.250Z,7.10
2023-03-19T06:29:34.238Z,7.26
2023-03-19T06:32:20.137Z,7.09
2023-03-19T06:35:06.097Z,7.34
2023-03-19T06:37:52.012Z,7.18
2023-03-19T06:40:37.830Z,7.34
2023-03-19T06:43:23.775Z,6.96
2023-03-19T06:46:11.355Z,7.21
2023-03-19T06:48:57.809Z,7.34
2023-03-19T06:51:43.658Z,7.13
2023-03-19T06:54:29.522Z,7.39
2023-03-19T06:57:15.519Z,7.05
2023-03-19T07:00:01.368Z,6.97
2023-03-19T07:02:47.633Z,6.87
2023-03-19T07:05:33.504Z,7.37
2023-03-19T07:08:19.492Z,7.20
2023-03-19T07:11:05.232Z,6.85
2023-03-19T07:13:51.218Z,6.89
2023-03-19T07:16:37.155Z,6.64
2023-03-19T07:19:22.932Z,6.83
2023-03-19T07:22:08.768Z,6.61
2023-03-19T07:24:54.721Z,6.97
2023-03-19T07:27:40.654Z,6.79
2023-03-19T07:30:26.494Z,7.04
2023-03-19T07:33:12.458Z,6.93
2023-03-19T07:35:58.514Z,6.97
2023-03-19T07:38:44.391Z,6.61
2023-03-19T07:41:30.270Z,6.92
2023-03-19T07:44:16.060Z,6.59
2023-03-19T07:47:01.983Z,6.63
2023-03-19T07:49:47.806Z,6.61
2023-03-19T07:52:33.663Z,6.79
2023-03-19T07:55:19.508Z,6.57
2023-03-19T07:58:05.441Z,6.72
2023-03-19T08:00:51.214Z,7.13
2023-03-19T08:03:37.214Z,6.55
2023-03-19T08:06:23.240Z,6.77
2023-03-19T08:09:09.125Z,6.92
2023-03-19T08:11:55.084Z,7.23
2023-03-19T08:14:41.006Z,6.87
2023-03-19T08:17:26.944Z,6.61
2023-03-19T08:20:12.839Z,6.95
2023-03-19T08:22:58.660Z,6.62
2023-03-19T08:25:44.605Z,6.71
2023-03-19T08:28:30.560Z,6.88
2023-03-19T08:31:16.419Z,6.90
2023-03-19T08:34:02.362Z,6.79
2023-03-19T08:36:48.187Z,6.72
2023-03-19T08:39:34.125Z,6.73
2023-03-19T08:42:20.191Z,6.27
2023-03-19T08:45:06.161Z,7.14
2023-03-19T08:47:52.067Z,6.50
2023-03-19T08:50:37.930Z,6.80
2023-03-19T08:53:23.908Z,6.51
2023-03-19T08:56:09.760Z,6.70
2023-03-19T08:58:55.697Z,6.64
2023-03-19T09:01:41.611Z,6.74
2023-03-19T09:04:27.542Z,6.34
2023-03-19T09:07:13.525Z,6.67
2023-03-19T09:09:59.501Z,6.47
2023-03-19T09:12:47.395Z,6.21
2023-03-19T09:15:34.361Z,6.73
2023-03-19T09:18:20.540Z,6.54
2023-03-19T09:21:06.363Z,6.32
2023-03-19T09:23:52.407Z,6.58
2023-03-19T09:26:38.360Z,6.44
2023-03-19T09:29:24.202Z,6.54
2023-03-19T09:32:10.180Z,6.66
2023-03-19T09:34:55.938Z,5.86
2023-03-19T09:37:41.744Z,6.15
2023-03-19T09:40:27.614Z,6.43
2023-03-19T09:43:13.498Z,6.48
2023-03-19T09:45:59.406Z,6.43
2023-03-19T09:48:45.367Z,6.08
2023-03-19T09:51:31.422Z,5.97
2023-03-19T09:54:17.278Z,6.22
2023-03-19T09:57:03.341Z,6.03
2023-03-19T09:59:49.246Z,6.24
2023-03-19T10:02:35.145Z,6.04
2023-03-19T10:05:21.039Z,5.92
2023-03-19T10:08:07.062Z,6.56
2023-03-19T10:10:52.971Z,6.71
2023-03-19T10:13:38.743Z,6.95
2023-03-19T10:16:24.558Z,6.78
2023-03-19T10:19:11.006Z,7.11
2023-03-19T10:21:56.944Z,7.08
2023-03-19T10:24:43.047Z,7.48
2023-03-19T10:27:29.082Z,6.91
2023-03-19T10:30:15.031Z,7.55
2023-03-19T10:33:01.113Z,7.36
2023-03-19T10:35:47.188Z,7.52
2023-03-19T10:38:33.539Z,7.58
2023-03-19T10:41:19.374Z,8.00
2023-03-19T10:44:05.210Z,7.60
2023-03-19T10:46:51.153Z,7.58
2023-03-19T10:49:36.970Z,7.23
2023-03-19T10:52:22.950Z,7.29
2023-03-19T10:55:08.914Z,7.06
2023-03-19T10:57:54.735Z,7.18
2023-03-19T11:00:40.627Z,7.57
2023-03-19T11:03:26.547Z,6.95
2023-03-19T11:06:12.376Z,7.18
2023-03-19T11:08:58.247Z,7.47
2023-03-19T11:11:44.300Z,7.04
2023-03-19T11:14:30.148Z,7.48
2023-03-19T11:17:16.084Z,7.71
2023-03-19T11:20:02.023Z,7.91
2023-03-19T11:22:47.968Z,7.87
2023-03-19T11:25:34.056Z,7.76
2023-03-19T11:28:22.107Z,8.16
2023-03-19T11:31:09.004Z,7.52
2023-03-19T11:33:54.967Z,7.71
2023-03-19T11:36:40.778Z,7.63
2023-03-19T11:39:26.674Z,8.03
2023-03-19T11:42:12.528Z,8.27
2023-03-19T11:44:58.508Z,7.99
2023-03-19T11:47:44.432Z,7.76
2023-03-19T11:50:30.222Z,7.87
2023-03-19T11:53:16.298Z,8.09
2023-03-19T11:56:02.251Z,8.19
2023-03-19T11:58:48.018Z,8.11
2023-03-19T12:01:33.999Z,7.95
2023-03-19T12:04:19.852Z,7.38
2023-03-19T12:07:05.824Z,7.34
2023-03-19T12:09:51.781Z,7.57
2023-03-19T12:12:37.656Z,7.24
2023-03-19T12:15:23.658Z,7.26
2023-03-19T12:18:09.383Z,7.08
2023-03-19T12:20:55.287Z,6.75
2023-03-19T12:23:41.223Z,6.94
2023-03-19T12:26:27.048Z,6.84
2023-03-19T12:29:12.864Z,6.87
2023-03-19T12:31:58.842Z,6.80
2023-03-19T12:34:44.765Z,6.59
2023-03-19T12:37:30.579Z,6.84
2023-03-19T12:40:16.657Z,6.52
2023-03-19T12:43:02.671Z,6.42
2023-03-19T12:45:48.686Z,6.02
2023-03-19T12:48:34.495Z,5.70
2023-03-19T12:51:20.385Z,5.50
2023-03-19T12:54:06.265Z,5.09
2023-03-19T12:56:52.120Z,5.56
2023-03-19T12:59:38.020Z,4.92
2023-03-19T13:02:24.007Z,5.24
2023-03-19T13:05:10.159Z,5.34
2023-03-19T13:07:56.129Z,5.07
2023-03-19T13:10:41.977Z,4.98
2023-03-19T13:13:27.855Z,4.43
2023-03-19T13:16:14.046Z,4.56
2023-03-19T13:18:59.928Z,4.19
2023-03-19T13:21:45.971Z,3.88
2023-03-19T13:24:31.815Z,3.68
2023-03-19T13:27:17.743Z,3.72
2023-03-19T13:30:03.820Z,3.68
2023-03-19T13:32:49.895Z,4.00
2023-03-19T13:35:35.812Z,3.97
2023-03-19T13:38:21.615Z,4.09
2023-03-19T13:41:07.496Z,3.48
2023-03-19T13:43:53.450Z,3.88
2023-03-19T13:46:39.315Z,3.73
2023-03-19T13:49:25.277Z,3.57
2023-03-19T13:52:11.144Z,3.47
2023-03-19T13:54:56.994Z,3.32
2023-03-19T13:57:42.876Z,3.43
2023-03-19T14:00:28.861Z,3.24
2023-03-19T14:03:17.234Z,3.20
2023-03-19T14:06:03.849Z,3.21
2023-03-19T14:08:49.757Z,3.01
2023-03-19T14:11:35.586Z,3.11
2023-03-19T14:14:21.536Z,3.08
2023-03-19T14:17:07.735Z,3.04
2023-03-19T14:19:54.300Z,2.94
2023-03-19T14:22:40.476Z,2.83
2023-03-19T14:25:26.330Z,2.41
2023-03-19T14:28:12.188Z,2.57
2023-03-19T14:30:58.974Z,2.50
2023-03-19T14:33:44.820Z,2.40
2023-03-19T14:36:30.684Z,2.87
2023-03-19T14:39:16.549Z,2.68
2023-03-19T14:42:02.486Z,10.14
2023-03-19T14:44:48.401Z,5.56
2023-03-19T14:47:34.235Z,4.16
2023-03-19T14:50:20.420Z,4.85
2023-03-19T14:53:06.230Z,7.29
2023-03-19T14:55:52.121Z,5.75
2023-03-19T14:58:38.014Z,13.32
2023-03-19T15:01:23.848Z,12.25
2023-03-19T15:04:09.723Z,6.50
2023-03-19T15:06:55.759Z,9.16
2023-03-19T15:09:42.103Z,7.86
2023-03-19T15:12:28.013Z,7.38
2023-03-19T15:15:13.922Z,8.50
2023-03-19T15:18:03.841Z,9.39
2023-03-19T15:20:49.869Z,9.18
2023-03-19T15:23:35.896Z,10.76
2023-03-19T15:26:21.670Z,12.24
2023-03-19T15:29:12.059Z,9.22
2023-03-19T15:32:05.318Z,12.27
2023-03-19T15:34:52.658Z,7.18
2023-03-19T15:37:38.932Z,11.00
2023-03-19T15:40:26.945Z,9.34
2023-03-19T15:43:12.996Z,8.12
2023-03-19T15:45:58.867Z,6.52
2023-03-19T15:48:44.726Z,13.18
2023-03-19T15:51:30.799Z,15.25
2023-03-19T15:54:16.710Z,21.19
2023-03-19T15:57:02.620Z,17.20
2023-03-19T15:59:48.569Z,9.62
2023-03-19T16:02:34.422Z,7.72
2023-03-19T16:05:22.910Z,6.78
2023-03-19T16:08:09.242Z,7.82
2023-03-19T16:10:55.083Z,8.55
2023-03-19T16:13:41.167Z,12.59
2023-03-19T16:16:27.199Z,6.31
2023-03-19T16:19:13.137Z,6.09
2023-03-19T16:21:59.007Z,7.76
2023-03-19T16:24:44.813Z,5.26
2023-03-19T16:27:30.762Z,5.10
2023-03-19T16:30:26.487Z,5.00
2023-03-19T16:33:12.623Z,4.95
2023-03-19T16:35:58.579Z,4.18
2023-03-19T16:38:44.426Z,4.38
2023-03-19T16:41:32.635Z,4.11
2023-03-19T16:44:18.592Z,4.99
2023-03-19T16:47:04.361Z,7.78
2023-03-19T16:49:50.254Z,7.35
2023-03-19T16:52:36.083Z,4.08
2023-03-19T16:55:22.010Z,3.49
2023-03-19T16:58:08.051Z,4.35
2023-03-19T17:00:53.905Z,3.39
2023-03-19T17:03:39.952Z,3.36
2023-03-19T17:06:25.839Z,3.50
2023-03-19T17:09:12.307Z,6.38
2023-03-19T17:11:58.257Z,4.09
2023-03-19T17:14:44.160Z,3.56
2023-03-19T17:17:29.967Z,3.33
2023-03-19T17:20:15.917Z,3.57
2023-03-19T17:23:01.737Z,3.26
2023-03-19T17:25:47.962Z,8.87
2023-03-19T17:28:33.839Z,5.29
2023-03-19T17:31:19.826Z,6.64
2023-03-19T17:34:05.741Z,3.82
2023-03-19T17:36:51.581Z,3.83
2023-03-19T17:39:37.599Z,3.94
2023-03-19T17:42:23.641Z,3.93
2023-03-19T17:45:09.602Z,3.88
2023-03-19T17:47:55.604Z,4.14
2023-03-19T17:50:41.309Z,4.15
2023-03-19T17:53:27.118Z,3.94
2023-03-19T17:56:13.020Z,4.53
2023-03-19T17:58:58.858Z,4.27
2023-03-19T18:01:44.770Z,4.36
2023-03-19T18:04:30.668Z,4.07
2023-03-19T18:07:16.635Z,4.53
2023-03-19T18:10:02.493Z,4.87
2023-03-19T18:12:48.411Z,4.82
2023-03-19T18:15:34.288Z,4.80
2023-03-19T18:18:20.224Z,4.12
2023-03-19T18:21:06.023Z,3.59
2023-03-19T18:23:51.924Z,3.01
2023-03-19T18:26:37.830Z,2.75
2023-03-19T18:29:23.819Z,2.51
2023-03-19T18:32:09.671Z,1.98
2023-03-19T18:34:55.893Z,1.76
2023-03-19T18:37:41.903Z,1.84
2023-03-19T18:40:27.970Z,1.53
2023-03-19T18:43:16.050Z,1.45
2023-03-19T18:46:02.388Z,1.35
2023-03-19T18:48:48.334Z,1.14
2023-03-19T18:51:34.202Z,1.07
2023-03-19T18:54:20.225Z,1.27
2023-03-19T18:57:06.076Z,1.25
2023-03-19T18:59:52.009Z,1.19
2023-03-19T19:02:38.016Z,1.10
2023-03-19T19:05:23.763Z,0.81
2023-03-19T19:08:09.790Z,0.92
2023-03-19T19:10:55.930Z,0.96
2023-03-19T19:13:55.038Z,0.92
2023-03-19T19:16:41.681Z,0.87
2023-03-19T19:19:27.525Z,0.90
2023-03-19T19:22:15.290Z,1.02
2023-03-19T19:25:01.224Z,1.07
2023-03-19T19:27:47.210Z,1.09
2023-03-19T19:30:33.320Z,1.12
2023-03-19T19:33:19.690Z,1.07
2023-03-19T19:36:05.674Z,0.94
2023-03-19T19:38:51.595Z,0.94
2023-03-19T19:41:37.374Z,0.81
2023-03-19T19:44:23.309Z,0.78
2023-03-19T19:47:12.021Z,0.72
2023-03-19T19:49:59.351Z,0.68
2023-03-19T19:52:45.181Z,0.55
2023-03-19T19:55:31.159Z,0.47
2023-03-19T19:58:17.046Z,0.58
2023-03-19T20:01:04.614Z,0.68
2023-03-19T20:03:51.064Z,0.63
2023-03-19T20:06:37.059Z,0.69
2023-03-19T20:09:22.956Z,0.61
2023-03-19T20:12:08.845Z,0.54
2023-03-19T20:14:54.623Z,0.46
2023-03-19T20:17:40.426Z,0.66
2023-03-19T20:20:26.298Z,0.44
2023-03-19T20:23:12.205Z,0.34
2023-03-19T20:25:58.121Z,0.33
2023-03-19T20:28:44.001Z,0.35
2023-03-19T20:31:29.944Z,0.44
2023-03-19T20:34:28.712Z,0.49
2023-03-19T20:37:18.448Z,0.55
2023-03-19T20:40:04.368Z,0.51
2023-03-19T20:42:50.349Z,0.63
2023-03-19T20:45:36.270Z,0.42
2023-03-19T20:48:22.314Z,0.50
2023-03-19T20:51:08.275Z,0.43
2023-03-19T20:53:54.154Z,0.57
2023-03-19T20:56:40.133Z,0.56
2023-03-19T20:59:25.996Z,0.59
2023-03-19T21:02:12.044Z,0.37
2023-03-19T21:04:57.950Z,0.36
2023-03-19T21:07:43.875Z,0.49
2023-03-19T21:10:29.793Z,0.35
2023-03-19T21:13:15.623Z,0.38
2023-03-19T21:16:01.565Z,0.17
2023-03-19T21:18:47.474Z,0.23
2023-03-19T21:21:33.344Z,0.22
2023-03-19T21:24:19.245Z,0.22
2023-03-19T21:27:05.112Z,0.28
2023-03-19T21:29:50.986Z,0.25
2023-03-19T21:32:37.040Z,0.35
2023-03-19T21:35:22.997Z,0.37
2023-03-19T21:38:08.946Z,0.40
2023-03-19T21:40:54.976Z,0.65
2023-03-19T21:43:40.766Z,0.58
2023-03-19T21:46:26.721Z,0.75
2023-03-19T21:49:12.638Z,0.77
2023-03-19T21:51:58.526Z,1.06
2023-03-19T21:54:44.478Z,1.14
2023-03-19T21:57:30.209Z,1.24
2023-03-19T22:00:16.029Z,1.14
2023-03-19T22:03:01.937Z,1.42
2023-03-19T22:05:47.843Z,1.54
2023-03-19T22:08:33.933Z,1.83
2023-03-19T22:11:19.778Z,1.92
2023-03-19T22:14:05.656Z,1.98
2023-03-19T22:16:52.813Z,2.22
2023-03-19T22:19:38.984Z,2.21
2023-03-19T22:22:24.855Z,2.44
2023-03-19T22:25:10.748Z,2.65
2023-03-19T22:27:56.562Z,2.41
2023-03-19T22:30:42.447Z,2.76
2023-03-19T22:33:28.285Z,3.25
2023-03-19T22:36:14.244Z,2.95
2023-03-19T22:39:00.095Z,2.96
2023-03-19T22:41:46.205Z,3.18
2023-03-19T22:44:32.304Z,3.15
2023-03-19T22:47:18.185Z,3.31
2023-03-19T22:50:04.086Z,3.36
2023-03-19T22:52:49.973Z,3.35
2023-03-19T22:55:37.274Z,3.70
2023-03-19T22:58:23.627Z,3.45
2023-03-19T23:01:09.737Z,3.64
2023-03-19T23:03:55.649Z,3.71
2023-03-19T23:06:41.593Z,3.61
2023-03-19T23:09:27.421Z,3.60
2023-03-19T23:12:13.162Z,3.76
2023-03-19T23:14:59.048Z,3.68
2023-03-19T23:17:44.941Z,3.67
2023-03-19T23:20:30.750Z,3.56
2023-03-19T23:23:16.796Z,3.68
2023-03-19T23:26:02.590Z,3.44
2023-03-19T23:28:48.649Z,3.57
2023-03-19T23:31:34.573Z,3.28
2023-03-19T23:34:20.543Z,3.79
2023-03-19T23:37:06.612Z,3.24
2023-03-19T23:39:54.433Z,3.16
2023-03-19T23:42:40.252Z,2.94
2023-03-19T23:45:26.218Z,2.84
2023-03-19T23:48:12.149Z,2.56
2023-03-19T23:51:00.097Z,2.28
2023-03-19T23:53:45.997Z,2.10
2023-03-19T23:56:31.783Z,2.05
2023-03-19T23:59:17.581Z,2.24
